Terminal Aerodrome Forecast
Issued by NWS Portland, ME

Home | Current Version | Previous Version | Text Only | Print | Product List | Glossary On
Versions: 1 2 3 4 5 6 7 8 9 10 11 12 13 14 15 16 17 18 19 20 21
537
FTUS41 KGYX 120854 AAA
TAFPWM
TAF AMD
KPWM 120854Z 1209/1306 28009KT P6SM FEW120
     FM121600 26007KT P6SM FEW050 SCT100
     FM122200 21005KT P6SM BKN050 BKN080=

USA.gov is the U.S. government's official web portal to all federal, state and local government web resources and services.